sensor_id;sensor_type;location;lat;lon;timestamp;pressure;altitude;pressure_sealevel;temperature;humidity
68169;BME280;54981;50.206;15.978;2022-09-28T00:01:57;97261.06;;;8.77;100.00
68169;BME280;54981;50.206;15.978;2022-09-28T00:04:22;97269.75;;;8.79;100.00
68169;BME280;54981;50.206;15.978;2022-09-28T00:06:48;97267.00;;;8.81;100.00
68169;BME280;54981;50.206;15.978;2022-09-28T00:09:14;97264.53;;;8.78;100.00
68169;BME280;54981;50.206;15.978;2022-09-28T00:11:40;97259.13;;;8.79;100.00
68169;BME280;54981;50.206;15.978;2022-09-28T00:14:05;97259.88;;;8.81;100.00
68169;BME280;54981;50.206;15.978;2022-09-28T00:16:40;97260.94;;;8.79;100.00
68169;BME280;54981;50.206;15.978;2022-09-28T00:19:06;97259.94;;;8.68;100.00
68169;BME280;54981;50.206;15.978;2022-09-28T00:21:34;97254.41;;;8.71;100.00
68169;BME280;54981;50.206;15.978;2022-09-28T00:24:01;97259.97;;;8.80;100.00
68169;BME280;54981;50.206;15.978;2022-09-28T00:26:47;97251.28;;;8.78;100.00
68169;BME280;54981;50.206;15.978;2022-09-28T00:31:40;97251.81;;;8.83;100.00
68169;BME280;54981;50.206;15.978;2022-09-28T00:34:06;97253.38;;;8.85;100.00
68169;BME280;54981;50.206;15.978;2022-09-28T00:36:32;97248.06;;;8.85;100.00
68169;BME280;54981;50.206;15.978;2022-09-28T00:39:03;97241.91;;;8.85;100.00
68169;BME280;54981;50.206;15.978;2022-09-28T00:41:29;97242.97;;;8.82;100.00
68169;BME280;54981;50.206;15.978;2022-09-28T00:46:57;97236.66;;;8.72;100.00
68169;BME280;54981;50.206;15.978;2022-09-28T00:49:52;97238.16;;;8.76;100.00
68169;BME280;54981;50.206;15.978;2022-09-28T00:52:27;97243.44;;;8.76;100.00
68169;BME280;54981;50.206;15.978;2022-09-28T00:54:57;97236.94;;;8.80;100.00
68169;BME280;54981;50.206;15.978;2022-09-28T00:57:25;97239.72;;;8.79;100.00
68169;BME280;54981;50.206;15.978;2022-09-28T00:59:51;97240.06;;;8.74;100.00
68169;BME280;54981;50.206;15.978;2022-09-28T01:02:18;97235.59;;;8.74;100.00
68169;BME280;54981;50.206;15.978;2022-09-28T01:04:44;97242.09;;;8.70;100.00
68169;BME280;54981;50.206;15.978;2022-09-28T01:07:10;97234.84;;;8.72;100.00
68169;BME280;54981;50.206;15.978;2022-09-28T01:09:37;97235.69;;;8.73;100.00
68169;BME280;54981;50.206;15.978;2022-09-28T01:12:05;97235.50;;;8.76;100.00
68169;BME280;54981;50.206;15.978;2022-09-28T01:14:30;97227.41;;;8.78;100.00
68169;BME280;54981;50.206;15.978;2022-09-28T01:19:58;97233.69;;;8.77;100.00
68169;BME280;54981;50.206;15.978;2022-09-28T01:27:35;97220.16;;;8.68;100.00
68169;BME280;54981;50.206;15.978;2022-09-28T01:30:03;97218.44;;;8.67;100.00
68169;BME280;54981;50.206;15.978;2022-09-28T01:35:17;97215.28;;;8.62;100.00
68169;BME280;54981;50.206;15.978;2022-09-28T01:40:45;97211.91;;;8.60;100.00
68169;BME280;54981;50.206;15.978;2022-09-28T01:43:26;97212.25;;;8.56;100.00
68169;BME280;54981;50.206;15.978;2022-09-28T01:46:01;97203.72;;;8.63;100.00
68169;BME280;54981;50.206;15.978;2022-09-28T01:48:41;97201.53;;;8.57;100.00
68169;BME280;54981;50.206;15.978;2022-09-28T01:51:13;97217.22;;;8.60;100.00
68169;BME280;54981;50.206;15.978;2022-09-28T01:53:46;97197.91;;;8.58;100.00
68169;BME280;54981;50.206;15.978;2022-09-28T01:56:40;97207.56;;;8.59;100.00
68169;BME280;54981;50.206;15.978;2022-09-28T01:59:15;97204.69;;;8.62;100.00
68169;BME280;54981;50.206;15.978;2022-09-28T02:01:53;97209.88;;;8.64;100.00
68169;BME280;54981;50.206;15.978;2022-09-28T02:07:01;97200.84;;;8.66;100.00
68169;BME280;54981;50.206;15.978;2022-09-28T02:09:32;97196.72;;;8.62;100.00
68169;BME280;54981;50.206;15.978;2022-09-28T02:12:06;97202.47;;;8.56;100.00
68169;BME280;54981;50.206;15.978;2022-09-28T02:14:35;97209.59;;;8.56;100.00
68169;BME280;54981;50.206;15.978;2022-09-28T02:17:02;97204.19;;;8.57;100.00
68169;BME280;54981;50.206;15.978;2022-09-28T02:19:29;97201.38;;;8.47;100.00
68169;BME280;54981;50.206;15.978;2022-09-28T02:22:03;97206.91;;;8.44;100.00
68169;BME280;54981;50.206;15.978;2022-09-28T02:24:44;97213.69;;;8.36;100.00
68169;BME280;54981;50.206;15.978;2022-09-28T02:27:15;97209.72;;;8.30;100.00
68169;BME280;54981;50.206;15.978;2022-09-28T02:29:41;97206.31;;;8.28;100.00
68169;BME280;54981;50.206;15.978;2022-09-28T02:32:07;97204.25;;;8.20;100.00
68169;BME280;54981;50.206;15.978;2022-09-28T02:34:33;97200.72;;;8.20;100.00
68169;BME280;54981;50.206;15.978;2022-09-28T02:37:00;97199.78;;;8.21;100.00
68169;BME280;54981;50.206;15.978;2022-09-28T02:39:25;97209.22;;;8.12;100.00
68169;BME280;54981;50.206;15.978;2022-09-28T02:42:12;97215.69;;;8.08;100.00
68169;BME280;54981;50.206;15.978;2022-09-28T02:45:11;97212.69;;;8.01;100.00
68169;BME280;54981;50.206;15.978;2022-09-28T02:50:45;97206.31;;;8.04;100.00
68169;BME280;54981;50.206;15.978;2022-09-28T03:06:46;97203.81;;;7.89;100.00
68169;BME280;54981;50.206;15.978;2022-09-28T03:09:35;97208.03;;;7.92;100.00
68169;BME280;54981;50.206;15.978;2022-09-28T03:12:04;97210.03;;;7.88;100.00
68169;BME280;54981;50.206;15.978;2022-09-28T03:14:32;97202.09;;;7.88;100.00
68169;BME280;54981;50.206;15.978;2022-09-28T03:16:57;97212.59;;;7.90;100.00
68169;BME280;54981;50.206;15.978;2022-09-28T03:19:27;97203.47;;;7.94;100.00
68169;BME280;54981;50.206;15.978;2022-09-28T03:21:54;97196.47;;;7.93;100.00
68169;BME280;54981;50.206;15.978;2022-09-28T03:24:19;97195.41;;;7.96;100.00
68169;BME280;54981;50.206;15.978;2022-09-28T03:26:45;97195.41;;;7.96;100.00
68169;BME280;54981;50.206;15.978;2022-09-28T03:29:10;97202.59;;;7.94;100.00
68169;BME280;54981;50.206;15.978;2022-09-28T03:31:35;97192.13;;;7.92;100.00
68169;BME280;54981;50.206;15.978;2022-09-28T03:34:01;97194.88;;;7.90;100.00
68169;BME280;54981;50.206;15.978;2022-09-28T03:36:26;97192.25;;;7.90;100.00
68169;BME280;54981;50.206;15.978;2022-09-28T03:38:52;97187.56;;;7.94;100.00
68169;BME280;54981;50.206;15.978;2022-09-28T03:41:20;97184.28;;;7.90;100.00
68169;BME280;54981;50.206;15.978;2022-09-28T03:43:47;97184.53;;;7.87;100.00
68169;BME280;54981;50.206;15.978;2022-09-28T03:46:12;97171.50;;;7.84;100.00
68169;BME280;54981;50.206;15.978;2022-09-28T03:48:38;97184.75;;;7.84;100.00
68169;BME280;54981;50.206;15.978;2022-09-28T03:51:05;97177.97;;;7.80;100.00
68169;BME280;54981;50.206;15.978;2022-09-28T03:53:34;97178.41;;;7.74;100.00
68169;BME280;54981;50.206;15.978;2022-09-28T03:56:05;97180.44;;;7.71;100.00
68169;BME280;54981;50.206;15.978;2022-09-28T03:58:31;97188.72;;;7.66;100.00
68169;BME280;54981;50.206;15.978;2022-09-28T04:01:01;97177.16;;;7.67;100.00
68169;BME280;54981;50.206;15.978;2022-09-28T04:03:27;97183.41;;;7.66;100.00
68169;BME280;54981;50.206;15.978;2022-09-28T04:05:52;97177.06;;;7.68;100.00
68169;BME280;54981;50.206;15.978;2022-09-28T04:08:18;97182.25;;;7.70;100.00
68169;BME280;54981;50.206;15.978;2022-09-28T04:10:44;97181.69;;;7.78;100.00
68169;BME280;54981;50.206;15.978;2022-09-28T04:13:09;97178.06;;;7.79;100.00
68169;BME280;54981;50.206;15.978;2022-09-28T04:15:35;97184.94;;;7.81;100.00
68169;BME280;54981;50.206;15.978;2022-09-28T04:18:02;97180.38;;;7.83;100.00
68169;BME280;54981;50.206;15.978;2022-09-28T04:20:27;97176.06;;;7.82;100.00
68169;BME280;54981;50.206;15.978;2022-09-28T04:22:53;97173.41;;;7.82;100.00
68169;BME280;54981;50.206;15.978;2022-09-28T04:25:19;97172.94;;;7.88;100.00
68169;BME280;54981;50.206;15.978;2022-09-28T04:27:44;97168.53;;;7.89;100.00
68169;BME280;54981;50.206;15.978;2022-09-28T04:30:28;97160.22;;;7.94;100.00
68169;BME280;54981;50.206;15.978;2022-09-28T04:32:54;97162.16;;;7.92;100.00
68169;BME280;54981;50.206;15.978;2022-09-28T04:35:19;97156.13;;;7.89;100.00
68169;BME280;54981;50.206;15.978;2022-09-28T04:37:44;97153.81;;;7.85;100.00
68169;BME280;54981;50.206;15.978;2022-09-28T04:40:09;97158.47;;;7.81;100.00
68169;BME280;54981;50.206;15.978;2022-09-28T04:42:35;97160.50;;;7.78;100.00
68169;BME280;54981;50.206;15.978;2022-09-28T04:45:00;97154.56;;;7.74;100.00
68169;BME280;54981;50.206;15.978;2022-09-28T04:47:28;97161.34;;;7.78;100.00
68169;BME280;54981;50.206;15.978;2022-09-28T04:49:53;97160.25;;;7.81;100.00
68169;BME280;54981;50.206;15.978;2022-09-28T04:52:18;97160.59;;;7.76;100.00
68169;BME280;54981;50.206;15.978;2022-09-28T04:54:44;97149.06;;;7.77;100.00
68169;BME280;54981;50.206;15.978;2022-09-28T04:57:09;97151.81;;;7.76;100.00
68169;BME280;54981;50.206;15.978;2022-09-28T04:59:35;97151.47;;;7.80;100.00
68169;BME280;54981;50.206;15.978;2022-09-28T05:02:02;97149.06;;;7.77;100.00
68169;BME280;54981;50.206;15.978;2022-09-28T05:04:27;97146.00;;;7.71;100.00
68169;BME280;54981;50.206;15.978;2022-09-28T05:06:53;97152.25;;;7.69;100.00
68169;BME280;54981;50.206;15.978;2022-09-28T05:09:19;97148.78;;;7.56;100.00
68169;BME280;54981;50.206;15.978;2022-09-28T05:11:45;97143.50;;;7.56;100.00
68169;BME280;54981;50.206;15.978;2022-09-28T05:14:10;97144.66;;;7.52;100.00
68169;BME280;54981;50.206;15.978;2022-09-28T05:16:36;97149.13;;;7.52;100.00
68169;BME280;54981;50.206;15.978;2022-09-28T05:19:01;97138.75;;;7.49;100.00
68169;BME280;54981;50.206;15.978;2022-09-28T05:21:27;97142.56;;;7.44;100.00
68169;BME280;54981;50.206;15.978;2022-09-28T05:23:54;97146.72;;;7.36;100.00
68169;BME280;54981;50.206;15.978;2022-09-28T05:26:21;97149.25;;;7.37;100.00
68169;BME280;54981;50.206;15.978;2022-09-28T05:28:47;97143.22;;;7.35;100.00
68169;BME280;54981;50.206;15.978;2022-09-28T05:31:12;97134.13;;;7.39;100.00
68169;BME280;54981;50.206;15.978;2022-09-28T05:33:38;97135.28;;;7.35;100.00
68169;BME280;54981;50.206;15.978;2022-09-28T05:36:03;97134.66;;;7.32;100.00
68169;BME280;54981;50.206;15.978;2022-09-28T05:38:29;97134.75;;;7.30;100.00
68169;BME280;54981;50.206;15.978;2022-09-28T05:40:55;97135.19;;;7.37;100.00
68169;BME280;54981;50.206;15.978;2022-09-28T05:43:21;97136.03;;;7.37;100.00
68169;BME280;54981;50.206;15.978;2022-09-28T05:45:46;97127.75;;;7.42;100.00
68169;BME280;54981;50.206;15.978;2022-09-28T05:48:12;97132.50;;;7.50;100.00
68169;BME280;54981;50.206;15.978;2022-09-28T05:50:37;97129.97;;;7.48;100.00
68169;BME280;54981;50.206;15.978;2022-09-28T05:53:07;97129.19;;;7.59;100.00
68169;BME280;54981;50.206;15.978;2022-09-28T05:55:34;97133.84;;;7.68;100.00
68169;BME280;54981;50.206;15.978;2022-09-28T05:58:02;97130.22;;;7.69;100.00
68169;BME280;54981;50.206;15.978;2022-09-28T06:00:29;97131.03;;;7.82;100.00
68169;BME280;54981;50.206;15.978;2022-09-28T06:02:57;97123.19;;;7.81;100.00
68169;BME280;54981;50.206;15.978;2022-09-28T06:05:23;97122.75;;;7.87;100.00
68169;BME280;54981;50.206;15.978;2022-09-28T06:07:48;97118.03;;;7.90;100.00
68169;BME280;54981;50.206;15.978;2022-09-28T06:10:14;97121.19;;;7.96;100.00
68169;BME280;54981;50.206;15.978;2022-09-28T06:12:39;97111.34;;;7.98;100.00
68169;BME280;54981;50.206;15.978;2022-09-28T06:15:05;97099.72;;;8.11;100.00
68169;BME280;54981;50.206;15.978;2022-09-28T06:17:31;97101.84;;;8.30;100.00
68169;BME280;54981;50.206;15.978;2022-09-28T06:19:56;97095.19;;;8.60;100.00
68169;BME280;54981;50.206;15.978;2022-09-28T06:22:22;97097.03;;;8.71;100.00
68169;BME280;54981;50.206;15.978;2022-09-28T06:24:47;97094.41;;;8.93;100.00
68169;BME280;54981;50.206;15.978;2022-09-28T06:27:12;97090.28;;;9.23;100.00
68169;BME280;54981;50.206;15.978;2022-09-28T06:29:38;97089.56;;;9.44;100.00
68169;BME280;54981;50.206;15.978;2022-09-28T06:32:03;97092.16;;;9.66;100.00
68169;BME280;54981;50.206;15.978;2022-09-28T06:34:28;97094.31;;;9.72;100.00
68169;BME280;54981;50.206;15.978;2022-09-28T06:36:54;97093.44;;;9.83;99.92
68169;BME280;54981;50.206;15.978;2022-09-28T06:39:19;97093.41;;;9.94;99.92
68169;BME280;54981;50.206;15.978;2022-09-28T06:41:45;97091.28;;;9.77;96.46
68169;BME280;54981;50.206;15.978;2022-09-28T06:44:10;97085.47;;;9.83;97.72
68169;BME280;54981;50.206;15.978;2022-09-28T06:46:35;97092.22;;;9.87;97.72
68169;BME280;54981;50.206;15.978;2022-09-28T06:49:02;97087.91;;;9.75;96.42
68169;BME280;54981;50.206;15.978;2022-09-28T06:51:28;97083.97;;;9.69;96.34
68169;BME280;54981;50.206;15.978;2022-09-28T06:53:54;97072.47;;;9.69;94.29
68169;BME280;54981;50.206;15.978;2022-09-28T06:56:20;97075.25;;;9.67;96.11
68169;BME280;54981;50.206;15.978;2022-09-28T06:58:46;97067.38;;;9.77;95.13
68169;BME280;54981;50.206;15.978;2022-09-28T07:01:11;97068.28;;;9.98;95.17
68169;BME280;54981;50.206;15.978;2022-09-28T07:03:37;97069.16;;;10.20;93.69
68169;BME280;54981;50.206;15.978;2022-09-28T07:06:04;97061.72;;;10.35;92.52
68169;BME280;54981;50.206;15.978;2022-09-28T07:08:29;97056.91;;;10.50;90.31
68169;BME280;54981;50.206;15.978;2022-09-28T07:10:55;97069.50;;;10.48;90.82
68169;BME280;54981;50.206;15.978;2022-09-28T07:13:22;97060.31;;;10.52;90.66
68169;BME280;54981;50.206;15.978;2022-09-28T07:15:53;97055.63;;;10.44;90.89
68169;BME280;54981;50.206;15.978;2022-09-28T07:18:18;97058.69;;;10.39;91.49
68169;BME280;54981;50.206;15.978;2022-09-28T07:20:44;97061.06;;;10.42;91.32
68169;BME280;54981;50.206;15.978;2022-09-28T07:23:09;97064.13;;;10.38;90.55
68169;BME280;54981;50.206;15.978;2022-09-28T07:25:35;97055.75;;;10.42;90.98
68169;BME280;54981;50.206;15.978;2022-09-28T07:28:04;97059.84;;;10.47;91.30
68169;BME280;54981;50.206;15.978;2022-09-28T07:30:32;97059.75;;;10.58;89.47
68169;BME280;54981;50.206;15.978;2022-09-28T07:32:59;97052.22;;;10.63;90.74
68169;BME280;54981;50.206;15.978;2022-09-28T07:35:25;97056.59;;;10.64;90.63
68169;BME280;54981;50.206;15.978;2022-09-28T07:38:09;97063.41;;;10.57;89.98
68169;BME280;54981;50.206;15.978;2022-09-28T07:40:35;97057.31;;;10.66;90.32
68169;BME280;54981;50.206;15.978;2022-09-28T07:43:20;97054.16;;;10.51;89.51
68169;BME280;54981;50.206;15.978;2022-09-28T07:45:50;97047.72;;;10.54;89.55
68169;BME280;54981;50.206;15.978;2022-09-28T07:48:16;97056.59;;;10.64;91.43
68169;BME280;54981;50.206;15.978;2022-09-28T07:50:47;97050.66;;;10.60;91.18
68169;BME280;54981;50.206;15.978;2022-09-28T07:53:13;97042.00;;;10.58;88.20
68169;BME280;54981;50.206;15.978;2022-09-28T07:55:38;97040.75;;;10.62;89.60
68169;BME280;54981;50.206;15.978;2022-09-28T07:58:03;97044.97;;;10.65;89.63
68169;BME280;54981;50.206;15.978;2022-09-28T08:00:30;97039.25;;;10.70;90.44
68169;BME280;54981;50.206;15.978;2022-09-28T08:03:03;97032.41;;;10.77;88.46
68169;BME280;54981;50.206;15.978;2022-09-28T08:05:28;97021.75;;;10.77;88.09
68169;BME280;54981;50.206;15.978;2022-09-28T08:08:01;97023.16;;;10.71;87.42
68169;BME280;54981;50.206;15.978;2022-09-28T08:10:26;97013.88;;;10.65;87.66
68169;BME280;54981;50.206;15.978;2022-09-28T08:12:55;97015.06;;;10.52;88.33
68169;BME280;54981;50.206;15.978;2022-09-28T08:15:22;97017.72;;;10.52;89.09
68169;BME280;54981;50.206;15.978;2022-09-28T08:17:48;97018.00;;;10.49;88.48
68169;BME280;54981;50.206;15.978;2022-09-28T08:20:14;97015.13;;;10.40;89.08
68169;BME280;54981;50.206;15.978;2022-09-28T08:23:04;97006.03;;;10.43;90.61
68169;BME280;54981;50.206;15.978;2022-09-28T08:25:30;97002.03;;;10.49;89.90
68169;BME280;54981;50.206;15.978;2022-09-28T08:27:55;97003.75;;;10.59;92.23
68169;BME280;54981;50.206;15.978;2022-09-28T08:30:20;96998.81;;;10.76;92.07
68169;BME280;54981;50.206;15.978;2022-09-28T08:32:46;97012.66;;;10.79;90.23
68169;BME280;54981;50.206;15.978;2022-09-28T08:35:15;97005.16;;;10.94;92.21
68169;BME280;54981;50.206;15.978;2022-09-28T08:37:40;97004.50;;;11.02;90.63
68169;BME280;54981;50.206;15.978;2022-09-28T08:40:15;96995.56;;;11.13;88.95
68169;BME280;54981;50.206;15.978;2022-09-28T08:42:42;96995.75;;;11.30;89.52
68169;BME280;54981;50.206;15.978;2022-09-28T08:45:12;96997.59;;;11.40;89.78
68169;BME280;54981;50.206;15.978;2022-09-28T08:48:02;96994.53;;;11.54;87.70
68169;BME280;54981;50.206;15.978;2022-09-28T08:50:59;96989.50;;;11.70;86.29
68169;BME280;54981;50.206;15.978;2022-09-28T08:53:34;96988.78;;;11.78;86.63
68169;BME280;54981;50.206;15.978;2022-09-28T08:56:06;97000.16;;;11.70;85.57
68169;BME280;54981;50.206;15.978;2022-09-28T08:58:38;97008.56;;;11.76;85.80
68169;BME280;54981;50.206;15.978;2022-09-28T09:01:07;96998.75;;;11.66;86.64
68169;BME280;54981;50.206;15.978;2022-09-28T09:03:38;96987.38;;;11.55;83.40
68169;BME280;54981;50.206;15.978;2022-09-28T09:14:24;97010.75;;;11.32;85.82
68169;BME280;54981;50.206;15.978;2022-09-28T09:19:49;96991.56;;;11.38;85.07
68169;BME280;54981;50.206;15.978;2022-09-28T09:22:25;96982.31;;;11.42;83.63
68169;BME280;54981;50.206;15.978;2022-09-28T09:25:12;96965.59;;;11.40;84.56
68169;BME280;54981;50.206;15.978;2022-09-28T09:28:04;96976.00;;;11.43;84.54
68169;BME280;54981;50.206;15.978;2022-09-28T09:39:52;96987.78;;;11.40;83.12
68169;BME280;54981;50.206;15.978;2022-09-28T09:42:42;96981.44;;;11.32;84.11
68169;BME280;54981;50.206;15.978;2022-09-28T09:45:39;96986.63;;;11.23;84.89
68169;BME280;54981;50.206;15.978;2022-09-28T09:48:25;96979.88;;;11.19;84.76
68169;BME280;54981;50.206;15.978;2022-09-28T09:51:00;96980.41;;;11.13;85.10
68169;BME280;54981;50.206;15.978;2022-09-28T09:53:41;96975.09;;;11.13;86.13
68169;BME280;54981;50.206;15.978;2022-09-28T09:56:15;96967.97;;;11.14;85.58
68169;BME280;54981;50.206;15.978;2022-09-28T09:58:50;96966.97;;;11.15;87.51
68169;BME280;54981;50.206;15.978;2022-09-28T10:01:20;96958.00;;;11.16;87.56
68169;BME280;54981;50.206;15.978;2022-09-28T10:03:47;96955.06;;;11.19;85.92
68169;BME280;54981;50.206;15.978;2022-09-28T10:06:19;96941.78;;;11.28;86.26
68169;BME280;54981;50.206;15.978;2022-09-28T10:08:48;96933.91;;;11.27;86.45
68169;BME280;54981;50.206;15.978;2022-09-28T10:11:21;96928.59;;;11.37;85.41
68169;BME280;54981;50.206;15.978;2022-09-28T10:13:49;96933.09;;;11.36;86.70
68169;BME280;54981;50.206;15.978;2022-09-28T10:16:16;96924.69;;;11.41;84.83
68169;BME280;54981;50.206;15.978;2022-09-28T10:18:42;96930.00;;;11.41;85.63
68169;BME280;54981;50.206;15.978;2022-09-28T10:21:18;96941.06;;;11.26;88.23
68169;BME280;54981;50.206;15.978;2022-09-28T10:23:47;96956.63;;;11.21;89.94
68169;BME280;54981;50.206;15.978;2022-09-28T10:26:17;96967.22;;;11.02;93.37
68169;BME280;54981;50.206;15.978;2022-09-28T10:28:54;96972.13;;;10.97;94.06
68169;BME280;54981;50.206;15.978;2022-09-28T10:34:13;96977.19;;;10.69;98.01
68169;BME280;54981;50.206;15.978;2022-09-28T10:36:49;96976.13;;;10.51;100.00
68169;BME280;54981;50.206;15.978;2022-09-28T10:39:46;96981.97;;;10.44;100.00
68169;BME280;54981;50.206;15.978;2022-09-28T10:42:11;96977.88;;;10.40;100.00
68169;BME280;54981;50.206;15.978;2022-09-28T10:47:25;96973.00;;;10.45;100.00
68169;BME280;54981;50.206;15.978;2022-09-28T10:49:53;96972.06;;;10.47;100.00
68169;BME280;54981;50.206;15.978;2022-09-28T10:54:53;96971.06;;;10.48;100.00
68169;BME280;54981;50.206;15.978;2022-09-28T10:57:33;96964.06;;;10.47;100.00
68169;BME280;54981;50.206;15.978;2022-09-28T10:59:59;96969.84;;;10.52;100.00
68169;BME280;54981;50.206;15.978;2022-09-28T11:02:35;96979.38;;;10.54;100.00
68169;BME280;54981;50.206;15.978;2022-09-28T11:05:03;96975.59;;;10.57;100.00
68169;BME280;54981;50.206;15.978;2022-09-28T11:07:31;96977.88;;;10.61;100.00
68169;BME280;54981;50.206;15.978;2022-09-28T11:09:58;96973.66;;;10.59;100.00
68169;BME280;54981;50.206;15.978;2022-09-28T11:12:36;96976.03;;;10.62;100.00
68169;BME280;54981;50.206;15.978;2022-09-28T11:15:16;96973.38;;;10.62;100.00
68169;BME280;54981;50.206;15.978;2022-09-28T11:17:42;96970.44;;;10.65;100.00
68169;BME280;54981;50.206;15.978;2022-09-28T11:22:59;96966.53;;;10.69;100.00
68169;BME280;54981;50.206;15.978;2022-09-28T11:25:27;96966.16;;;10.74;100.00
68169;BME280;54981;50.206;15.978;2022-09-28T11:30:22;96963.00;;;10.90;100.00
68169;BME280;54981;50.206;15.978;2022-09-28T11:32:49;96954.44;;;10.96;100.00
68169;BME280;54981;50.206;15.978;2022-09-28T11:35:18;96950.38;;;11.01;100.00
68169;BME280;54981;50.206;15.978;2022-09-28T11:43:16;96951.81;;;11.05;100.00
68169;BME280;54981;50.206;15.978;2022-09-28T11:46:13;96952.09;;;11.02;100.00
68169;BME280;54981;50.206;15.978;2022-09-28T11:48:46;96944.94;;;11.03;100.00
68169;BME280;54981;50.206;15.978;2022-09-28T11:51:19;96952.81;;;11.04;100.00
68169;BME280;54981;50.206;15.978;2022-09-28T11:53:58;96953.34;;;11.08;100.00
68169;BME280;54981;50.206;15.978;2022-09-28T11:56:40;96953.53;;;11.16;100.00
68169;BME280;54981;50.206;15.978;2022-09-28T11:59:19;96948.22;;;11.16;100.00
68169;BME280;54981;50.206;15.978;2022-09-28T12:01:55;96951.84;;;11.15;100.00
68169;BME280;54981;50.206;15.978;2022-09-28T12:04:34;96945.53;;;11.16;100.00
68169;BME280;54981;50.206;15.978;2022-09-28T12:09:54;96947.09;;;11.28;100.00
68169;BME280;54981;50.206;15.978;2022-09-28T12:12:34;96945.69;;;11.34;100.00
68169;BME280;54981;50.206;15.978;2022-09-28T12:15:13;96943.03;;;11.44;100.00
68169;BME280;54981;50.206;15.978;2022-09-28T12:17:47;96939.53;;;11.43;100.00
68169;BME280;54981;50.206;15.978;2022-09-28T12:20:32;96939.53;;;11.53;100.00
68169;BME280;54981;50.206;15.978;2022-09-28T12:23:35;96926.09;;;11.55;100.00
68169;BME280;54981;50.206;15.978;2022-09-28T12:26:04;96924.09;;;11.47;100.00
68169;BME280;54981;50.206;15.978;2022-09-28T12:28:40;96920.47;;;11.48;100.00
68169;BME280;54981;50.206;15.978;2022-09-28T12:31:16;96923.56;;;11.53;100.00
68169;BME280;54981;50.206;15.978;2022-09-28T12:33:48;96922.97;;;11.49;100.00
68169;BME280;54981;50.206;15.978;2022-09-28T12:39:07;96931.25;;;11.37;100.00
68169;BME280;54981;50.206;15.978;2022-09-28T12:41:47;96925.94;;;11.37;100.00
68169;BME280;54981;50.206;15.978;2022-09-28T12:44:42;96930.31;;;11.47;100.00
68169;BME280;54981;50.206;15.978;2022-09-28T12:53:05;96921.19;;;11.50;100.00
68169;BME280;54981;50.206;15.978;2022-09-28T12:56:00;96923.28;;;11.56;100.00
68169;BME280;54981;50.206;15.978;2022-09-28T13:06:24;96933.63;;;11.59;100.00
68169;BME280;54981;50.206;15.978;2022-09-28T13:17:49;96927.47;;;11.78;100.00
68169;BME280;54981;50.206;15.978;2022-09-28T13:25:31;96915.53;;;11.82;100.00
68169;BME280;54981;50.206;15.978;2022-09-28T13:28:02;96904.03;;;11.82;100.00
68169;BME280;54981;50.206;15.978;2022-09-28T13:30:28;96899.25;;;11.76;100.00
68169;BME280;54981;50.206;15.978;2022-09-28T13:32:55;96917.66;;;11.79;100.00
68169;BME280;54981;50.206;15.978;2022-09-28T13:35:22;96909.69;;;11.88;100.00
68169;BME280;54981;50.206;15.978;2022-09-28T13:41:15;96905.56;;;12.04;100.00
68169;BME280;54981;50.206;15.978;2022-09-28T13:43:58;96897.97;;;12.19;100.00
68169;BME280;54981;50.206;15.978;2022-09-28T13:51:52;96909.88;;;12.34;100.00
68169;BME280;54981;50.206;15.978;2022-09-28T14:00:19;96910.56;;;12.26;100.00
68169;BME280;54981;50.206;15.978;2022-09-28T14:02:53;96919.06;;;12.49;100.00
68169;BME280;54981;50.206;15.978;2022-09-28T14:10:51;96927.00;;;12.69;100.00
68169;BME280;54981;50.206;15.978;2022-09-28T14:18:44;96936.31;;;12.55;100.00
68169;BME280;54981;50.206;15.978;2022-09-28T14:29:52;96934.44;;;12.28;100.00
68169;BME280;54981;50.206;15.978;2022-09-28T14:32:22;96942.00;;;12.32;100.00
68169;BME280;54981;50.206;15.978;2022-09-28T14:34:55;96950.56;;;12.36;100.00
68169;BME280;54981;50.206;15.978;2022-09-28T14:37:31;96951.03;;;12.31;100.00
68169;BME280;54981;50.206;15.978;2022-09-28T14:40:33;96951.00;;;12.22;100.00
68169;BME280;54981;50.206;15.978;2022-09-28T14:43:25;96955.25;;;12.14;100.00
68169;BME280;54981;50.206;15.978;2022-09-28T14:48:53;96955.50;;;12.21;100.00
68169;BME280;54981;50.206;15.978;2022-09-28T14:53:52;96966.06;;;12.23;100.00
68169;BME280;54981;50.206;15.978;2022-09-28T14:56:18;96960.84;;;12.21;100.00
68169;BME280;54981;50.206;15.978;2022-09-28T14:58:45;96960.16;;;12.19;100.00
68169;BME280;54981;50.206;15.978;2022-09-28T15:01:19;96966.47;;;12.28;100.00
68169;BME280;54981;50.206;15.978;2022-09-28T15:03:52;96963.38;;;12.32;100.00
68169;BME280;54981;50.206;15.978;2022-09-28T15:06:21;96959.56;;;12.35;100.00
68169;BME280;54981;50.206;15.978;2022-09-28T15:08:47;96961.06;;;12.47;100.00
68169;BME280;54981;50.206;15.978;2022-09-28T15:11:16;96963.44;;;12.50;100.00
68169;BME280;54981;50.206;15.978;2022-09-28T15:13:42;96955.47;;;12.41;100.00
68169;BME280;54981;50.206;15.978;2022-09-28T15:16:17;96958.56;;;12.36;100.00
68169;BME280;54981;50.206;15.978;2022-09-28T15:19:14;96964.59;;;12.38;100.00
68169;BME280;54981;50.206;15.978;2022-09-28T15:21:44;96967.69;;;12.33;100.00
68169;BME280;54981;50.206;15.978;2022-09-28T15:24:38;96964.78;;;12.36;100.00
68169;BME280;54981;50.206;15.978;2022-09-28T15:27:14;96974.03;;;12.32;100.00
68169;BME280;54981;50.206;15.978;2022-09-28T15:29:39;96977.13;;;12.38;100.00
68169;BME280;54981;50.206;15.978;2022-09-28T15:32:05;96972.91;;;12.35;100.00
68169;BME280;54981;50.206;15.978;2022-09-28T15:34:46;96976.31;;;12.27;100.00
68169;BME280;54981;50.206;15.978;2022-09-28T15:37:23;96983.47;;;12.27;100.00